createdAt,value
2022-08-22T00:00:13.385Z,4.50
2022-08-22T00:02:47.156Z,6.18
2022-08-22T00:02:53.053Z,3.70
2022-08-22T00:02:54.358Z,4.70
2022-08-22T00:02:59.281Z,4.95
2022-08-22T00:03:10.012Z,4.85
2022-08-22T00:03:11.561Z,3.28
2022-08-22T00:03:26.953Z,4.78
2022-08-22T00:06:10.993Z,4.45
2022-08-22T00:08:56.789Z,4.80
2022-08-22T00:11:36.432Z,4.60
2022-08-22T00:14:17.739Z,4.75
2022-08-22T00:17:01.041Z,4.43
2022-08-22T00:19:47.213Z,4.13
2022-08-22T00:22:26.262Z,4.28
2022-08-22T00:25:24.602Z,4.45
2022-08-22T00:28:02.351Z,4.35
2022-08-22T00:30:43.734Z,4.25
2022-08-22T00:33:25.320Z,4.88
2022-08-22T00:36:10.498Z,4.53
2022-08-22T00:38:50.540Z,3.83
2022-08-22T00:41:38.461Z,4.40
2022-08-22T00:44:46.268Z,4.15
2022-08-22T00:47:39.474Z,4.00
2022-08-22T00:50:45.617Z,4.45
2022-08-22T00:53:43.918Z,4.68
2022-08-22T00:56:35.479Z,4.78
2022-08-22T00:59:24.274Z,4.65
2022-08-22T01:02:06.699Z,4.88
2022-08-22T01:04:56.758Z,4.20
2022-08-22T01:07:52.672Z,4.57
2022-08-22T01:10:44.079Z,5.00
2022-08-22T01:13:36.909Z,4.40
2022-08-22T01:16:23.259Z,4.88
2022-08-22T01:19:08.540Z,4.78
2022-08-22T01:22:16.133Z,4.80
2022-08-22T01:25:22.407Z,4.85
2022-08-22T01:28:27.835Z,4.47
2022-08-22T01:31:44.582Z,4.88
2022-08-22T01:34:47.545Z,4.95
2022-08-22T01:37:46.082Z,5.15
2022-08-22T01:40:53.341Z,4.93
2022-08-22T01:43:59.569Z,5.45
2022-08-22T01:46:45.327Z,4.93
2022-08-22T01:49:23.992Z,5.22
2022-08-22T01:52:03.115Z,5.15
2022-08-22T01:54:47.325Z,5.22
2022-08-22T01:57:20.624Z,4.90
2022-08-22T01:59:57.970Z,5.07
2022-08-22T02:02:54.448Z,5.30
2022-08-22T02:05:32.162Z,4.80
2022-08-22T02:08:17.656Z,5.20
2022-08-22T02:11:03.166Z,4.70
2022-08-22T02:13:55.959Z,4.55
2022-08-22T02:16:38.500Z,4.32
2022-08-22T02:19:25.403Z,4.85
2022-08-22T02:22:03.274Z,4.65
2022-08-22T02:24:52.047Z,4.80
2022-08-22T02:27:36.339Z,4.97
2022-08-22T02:30:12.242Z,5.22
2022-08-22T02:32:57.773Z,5.03
2022-08-22T02:35:36.946Z,5.20
2022-08-22T02:38:26.473Z,5.35
2022-08-22T02:41:13.763Z,5.18
2022-08-22T02:43:52.419Z,5.03
2022-08-22T02:46:32.801Z,4.80
2022-08-22T02:49:13.048Z,5.45
2022-08-22T02:51:55.430Z,4.47
2022-08-22T02:54:33.950Z,5.18
2022-08-22T02:57:14.159Z,5.00
2022-08-22T03:00:30.720Z,5.78
2022-08-22T03:03:08.457Z,5.32
2022-08-22T03:05:59.040Z,5.72
2022-08-22T03:08:35.575Z,5.47
2022-08-22T03:11:19.292Z,5.35
2022-08-22T03:14:04.197Z,5.40
2022-08-22T03:16:41.575Z,5.82
2022-08-22T03:19:19.708Z,5.13
2022-08-22T03:21:59.961Z,5.50
2022-08-22T03:24:44.231Z,5.50
2022-08-22T03:27:32.908Z,5.07
2022-08-22T03:30:16.760Z,5.63
2022-08-22T03:32:56.908Z,5.45
2022-08-22T03:35:40.315Z,5.50
2022-08-22T03:38:24.085Z,5.03
2022-08-22T03:41:25.822Z,5.40
2022-08-22T03:44:36.729Z,5.40
2022-08-22T03:47:41.279Z,5.10
2022-08-22T03:50:50.984Z,5.38
2022-08-22T03:54:03.720Z,5.93
2022-08-22T03:57:01.380Z,5.32
2022-08-22T04:00:10.910Z,5.22
2022-08-22T04:03:19.480Z,5.90
2022-08-22T04:06:23.389Z,6.07
2022-08-22T04:09:24.341Z,6.90
2022-08-22T04:12:31.543Z,6.18
2022-08-22T04:15:33.894Z,8.18
2022-08-22T04:18:27.850Z,7.50
2022-08-22T04:21:30.123Z,7.00
2022-08-22T04:24:34.115Z,7.05
2022-08-22T04:27:15.670Z,7.38
2022-08-22T04:29:53.386Z,7.38
2022-08-22T04:32:34.638Z,7.20
2022-08-22T04:35:39.385Z,7.60
2022-08-22T04:38:19.053Z,7.47
2022-08-22T04:41:02.558Z,7.30
2022-08-22T04:43:43.430Z,6.93
2022-08-22T04:46:23.284Z,7.32
2022-08-22T04:49:03.248Z,7.63
2022-08-22T04:51:44.508Z,7.50
2022-08-22T04:54:40.462Z,7.00
2022-08-22T04:57:23.423Z,7.68
2022-08-22T05:00:03.766Z,7.55
2022-08-22T05:02:39.660Z,7.15
2022-08-22T05:05:19.659Z,7.60
2022-08-22T05:07:58.942Z,7.75
2022-08-22T05:10:41.116Z,7.30
2022-08-22T05:13:18.515Z,7.70
2022-08-22T05:15:53.192Z,6.97
2022-08-22T05:18:31.737Z,7.00
2022-08-22T05:21:08.247Z,6.88
2022-08-22T05:23:51.673Z,7.10
2022-08-22T05:26:24.884Z,7.68
2022-08-22T05:29:01.298Z,8.02
2022-08-22T05:31:35.928Z,7.90
2022-08-22T05:34:11.809Z,7.93
2022-08-22T05:36:49.193Z,7.63
2022-08-22T05:39:29.940Z,7.43
2022-08-22T05:42:06.363Z,8.02
2022-08-22T05:44:40.655Z,7.88
2022-08-22T05:47:31.393Z,7.55
2022-08-22T05:50:08.075Z,7.97
2022-08-22T05:52:58.141Z,8.13
2022-08-22T05:55:43.060Z,8.07
2022-08-22T05:58:45.024Z,7.97
2022-08-22T06:01:28.141Z,8.00
2022-08-22T06:04:07.761Z,8.63
2022-08-22T06:06:46.217Z,8.05
2022-08-22T06:09:23.114Z,8.30
2022-08-22T06:12:04.378Z,8.07
2022-08-22T06:14:46.741Z,8.95
2022-08-22T06:17:23.019Z,8.52
2022-08-22T06:19:57.991Z,9.18
2022-08-22T06:22:34.004Z,8.20
2022-08-22T06:25:13.305Z,10.25
2022-08-22T06:27:50.766Z,8.68
2022-08-22T06:30:26.322Z,7.30
2022-08-22T06:33:02.986Z,6.75
2022-08-22T06:35:54.109Z,6.95
2022-08-22T06:38:36.149Z,6.40
2022-08-22T06:41:15.177Z,6.85
2022-08-22T06:43:50.371Z,7.13
2022-08-22T06:46:25.788Z,6.72
2022-08-22T06:49:01.457Z,6.28
2022-08-22T06:51:38.270Z,6.57
2022-08-22T06:54:19.548Z,6.00
2022-08-22T06:56:56.749Z,5.47
2022-08-22T06:59:39.968Z,5.80
2022-08-22T07:02:27.432Z,6.00
2022-08-22T07:05:00.062Z,5.95
2022-08-22T07:07:32.347Z,5.30
2022-08-22T07:10:04.260Z,5.53
2022-08-22T07:12:41.379Z,5.45
2022-08-22T07:15:24.609Z,5.28
2022-08-22T07:18:02.434Z,4.45
2022-08-22T07:20:39.936Z,3.25
2022-08-22T07:23:15.574Z,3.65
2022-08-22T07:25:56.286Z,2.70
2022-08-22T07:28:50.813Z,3.03
2022-08-22T07:31:38.447Z,2.70
2022-08-22T07:34:38.912Z,2.80
2022-08-22T07:37:16.294Z,2.58
2022-08-22T07:39:58.659Z,2.67
2022-08-22T07:42:40.453Z,2.83
2022-08-22T07:45:20.970Z,3.25
2022-08-22T07:48:06.671Z,2.75
2022-08-22T07:50:46.019Z,5.75
2022-08-22T07:53:25.623Z,2.42
2022-08-22T07:56:00.693Z,3.13
2022-08-22T07:58:35.422Z,2.95
2022-08-22T08:01:09.812Z,2.63
2022-08-22T08:03:46.516Z,2.40
2022-08-22T08:06:18.659Z,2.20
2022-08-22T08:08:50.458Z,2.17
2022-08-22T08:11:26.708Z,2.20
2022-08-22T08:14:05.715Z,2.25
2022-08-22T08:16:53.818Z,2.15
2022-08-22T08:19:27.849Z,2.13
2022-08-22T08:22:04.899Z,2.20
2022-08-22T08:24:44.225Z,1.75
2022-08-22T08:27:37.727Z,2.17
2022-08-22T08:30:15.691Z,1.95
2022-08-22T08:33:12.095Z,1.75
2022-08-22T08:36:02.305Z,1.90
2022-08-22T08:38:43.504Z,2.15
2022-08-22T08:41:43.259Z,1.92
2022-08-22T08:44:37.780Z,1.73
2022-08-22T08:47:28.262Z,2.00
2022-08-22T08:50:16.743Z,2.22
2022-08-22T08:53:28.181Z,1.75
2022-08-22T08:56:07.760Z,1.88
2022-08-22T08:58:52.419Z,2.13
2022-08-22T09:01:41.734Z,1.90
2022-08-22T09:04:42.343Z,1.80
2022-08-22T09:07:58.371Z,2.40
2022-08-22T09:10:55.987Z,1.85
2022-08-22T09:13:55.260Z,2.00
2022-08-22T09:16:49.057Z,1.88
2022-08-22T09:19:52.662Z,2.25
2022-08-22T09:22:54.480Z,2.40
2022-08-22T09:25:38.521Z,1.80
2022-08-22T09:28:21.894Z,1.90
2022-08-22T09:31:16.942Z,1.83
2022-08-22T09:34:13.585Z,1.98
2022-08-22T09:37:14.146Z,1.88
2022-08-22T09:40:01.596Z,1.83
2022-08-22T09:42:46.409Z,2.00
2022-08-22T09:45:42.989Z,1.88
2022-08-22T09:48:41.053Z,2.00
2022-08-22T09:51:33.161Z,1.90
2022-08-22T09:54:20.958Z,2.38
2022-08-22T09:57:03.785Z,2.20
2022-08-22T09:59:59.083Z,1.80
2022-08-22T10:02:43.494Z,1.70
2022-08-22T10:05:35.214Z,2.00
2022-08-22T10:08:35.552Z,1.90
2022-08-22T10:11:19.783Z,1.98
2022-08-22T10:14:01.942Z,2.08
2022-08-22T10:17:13.727Z,1.60
2022-08-22T10:20:01.972Z,1.95
2022-08-22T10:22:46.539Z,1.77
2022-08-22T10:25:35.182Z,1.48
2022-08-22T10:28:18.317Z,1.70
2022-08-22T10:31:05.018Z,2.17
2022-08-22T10:33:44.401Z,1.75
2022-08-22T10:36:27.275Z,1.75
2022-08-22T10:39:11.021Z,1.88
2022-08-22T10:42:01.977Z,1.60
2022-08-22T10:44:48.089Z,1.92
2022-08-22T10:47:25.665Z,1.80
2022-08-22T10:50:02.917Z,1.20
2022-08-22T10:52:50.231Z,1.83
2022-08-22T10:55:28.800Z,1.48
2022-08-22T10:58:09.341Z,1.85
2022-08-22T11:00:51.912Z,1.52
2022-08-22T11:03:31.604Z,2.03
2022-08-22T11:06:06.642Z,1.70
2022-08-22T11:09:09.390Z,1.60
2022-08-22T11:11:46.198Z,1.65
2022-08-22T11:14:49.273Z,1.60
2022-08-22T11:17:41.672Z,1.30
2022-08-22T11:20:23.004Z,1.30
2022-08-22T11:23:17.268Z,1.38
2022-08-22T11:26:06.572Z,1.50
2022-08-22T11:29:13.839Z,1.50
2022-08-22T11:31:56.316Z,1.60
2022-08-22T11:34:49.558Z,1.58
2022-08-22T11:37:56.268Z,1.58
2022-08-22T11:40:41.817Z,1.70
2022-08-22T11:43:48.793Z,1.80
2022-08-22T11:46:32.841Z,1.80
2022-08-22T11:49:34.084Z,1.90
2022-08-22T11:52:21.583Z,1.60
2022-08-22T11:55:19.914Z,1.40
2022-08-22T11:57:59.560Z,1.77
2022-08-22T12:00:52.968Z,1.52
2022-08-22T12:03:42.935Z,1.77
2022-08-22T12:06:42.467Z,1.98
2022-08-22T12:09:38.110Z,1.65
2022-08-22T12:12:24.825Z,1.70
2022-08-22T12:15:05.452Z,1.65
2022-08-22T12:18:09.709Z,1.60
2022-08-22T12:21:06.662Z,1.60
2022-08-22T12:24:11.191Z,1.58
2022-08-22T12:27:28.823Z,2.00
2022-08-22T12:30:15.707Z,2.05
2022-08-22T12:33:23.206Z,1.75
2022-08-22T12:36:18.023Z,1.83
2022-08-22T12:39:07.756Z,1.77
2022-08-22T12:42:00.290Z,1.80
2022-08-22T12:44:52.298Z,2.10
2022-08-22T12:47:42.363Z,1.83
2022-08-22T12:50:32.912Z,2.03
2022-08-22T12:53:28.343Z,2.00
2022-08-22T12:56:14.333Z,1.80
2022-08-22T12:59:09.229Z,1.70
2022-08-22T13:01:47.495Z,1.67
2022-08-22T13:04:33.072Z,1.80
2022-08-22T13:07:24.921Z,1.75
2022-08-22T13:10:06.246Z,1.98
2022-08-22T13:12:46.568Z,1.83
2022-08-22T13:15:33.040Z,1.60
2022-08-22T13:18:29.421Z,1.65
2022-08-22T13:21:11.465Z,1.55
2022-08-22T13:23:55.036Z,1.60
2022-08-22T13:26:33.960Z,1.52
2022-08-22T13:29:26.202Z,1.70
2022-08-22T13:32:04.661Z,2.05
2022-08-22T13:34:43.564Z,1.80
2022-08-22T13:37:25.700Z,1.80
2022-08-22T13:40:07.488Z,1.90
2022-08-22T13:42:48.452Z,2.30
2022-08-22T13:45:27.054Z,1.88
2022-08-22T13:48:11.580Z,1.77
2022-08-22T13:51:04.658Z,2.40
2022-08-22T13:53:49.953Z,2.08
2022-08-22T13:56:47.305Z,1.95
2022-08-22T13:59:50.161Z,1.90
2022-08-22T14:02:43.385Z,1.80
2022-08-22T14:05:22.719Z,1.80
2022-08-22T14:08:13.042Z,2.10
2022-08-22T14:10:55.219Z,2.20
2022-08-22T14:13:46.123Z,2.05
2022-08-22T14:16:28.814Z,1.98
2022-08-22T14:19:06.157Z,1.95
2022-08-22T14:21:46.238Z,2.22
2022-08-22T14:24:28.780Z,1.88
2022-08-22T14:27:06.605Z,1.90
2022-08-22T14:29:50.129Z,2.13
2022-08-22T14:32:43.498Z,2.03
2022-08-22T14:35:34.724Z,2.15
2022-08-22T14:38:27.210Z,2.35
2022-08-22T14:41:05.907Z,2.28
2022-08-22T14:43:53.855Z,2.40
2022-08-22T14:46:38.533Z,2.00
2022-08-22T14:49:29.999Z,2.50
2022-08-22T14:52:19.599Z,2.13
2022-08-22T14:54:51.787Z,2.10
2022-08-22T14:57:27.237Z,2.17
2022-08-22T14:59:59.090Z,2.13
2022-08-22T15:02:36.353Z,1.92
2022-08-22T15:05:19.911Z,1.90
2022-08-22T15:07:59.769Z,2.40
2022-08-22T15:10:42.190Z,2.10
2022-08-22T15:13:14.972Z,2.35
2022-08-22T15:15:54.984Z,2.25
2022-08-22T15:18:41.424Z,2.00
2022-08-22T15:21:29.137Z,2.25
2022-08-22T15:24:08.375Z,2.47
2022-08-22T15:26:47.608Z,2.13
2022-08-22T15:29:26.587Z,2.10
2022-08-22T15:32:01.964Z,2.00
2022-08-22T15:34:42.265Z,2.00
2022-08-22T15:37:34.874Z,1.90
2022-08-22T15:40:14.616Z,2.05
2022-08-22T15:42:50.070Z,2.10
2022-08-22T15:45:33.740Z,2.35
2022-08-22T15:48:13.894Z,2.28
2022-08-22T15:51:04.944Z,2.00
2022-08-22T15:54:16.338Z,2.33
2022-08-22T15:57:29.806Z,2.00
2022-08-22T16:00:04.361Z,1.95
2022-08-22T16:03:01.993Z,2.33
2022-08-22T16:05:55.003Z,2.20
2022-08-22T16:08:33.269Z,1.90
2022-08-22T16:11:33.269Z,2.28
2022-08-22T16:14:23.527Z,2.20
2022-08-22T16:17:01.094Z,1.80
2022-08-22T16:19:35.765Z,2.30
2022-08-22T16:22:17.466Z,2.20
2022-08-22T16:25:03.228Z,2.25
2022-08-22T16:27:35.340Z,2.40
2022-08-22T16:30:17.707Z,2.30
2022-08-22T16:32:59.697Z,2.20
2022-08-22T16:36:29.307Z,2.20
2022-08-22T16:39:04.248Z,2.40
2022-08-22T16:41:41.947Z,2.20
2022-08-22T16:44:23.766Z,2.33
2022-08-22T16:46:58.267Z,2.22
2022-08-22T16:49:34.408Z,2.58
2022-08-22T16:52:36.507Z,2.40
2022-08-22T16:55:58.588Z,2.35
2022-08-22T16:59:01.070Z,2.70
2022-08-22T17:01:53.595Z,2.60
2022-08-22T17:04:35.467Z,2.25
2022-08-22T17:07:21.387Z,2.55
2022-08-22T17:10:19.029Z,2.13
2022-08-22T17:13:16.207Z,2.15
2022-08-22T17:16:02.909Z,2.00
2022-08-22T17:18:57.049Z,2.17
2022-08-22T17:21:34.647Z,2.13
2022-08-22T17:24:32.226Z,1.80
2022-08-22T17:27:20.029Z,1.90
2022-08-22T17:30:09.650Z,2.28
2022-08-22T17:33:00.097Z,2.78
2022-08-22T17:35:47.266Z,2.10
2022-08-22T17:38:35.670Z,2.03
2022-08-22T17:41:22.042Z,2.08
2022-08-22T17:44:02.982Z,2.10
2022-08-22T17:46:47.097Z,2.20
2022-08-22T17:49:28.852Z,2.17
2022-08-22T17:52:14.931Z,2.13
2022-08-22T17:54:55.451Z,2.60
2022-08-22T17:57:36.674Z,2.22
2022-08-22T18:00:18.991Z,2.45
2022-08-22T18:02:56.732Z,2.05
2022-08-22T18:05:35.209Z,2.65
2022-08-22T18:08:37.356Z,2.60
2022-08-22T18:11:15.881Z,2.78
2022-08-22T18:13:59.739Z,2.55
2022-08-22T18:16:47.492Z,2.40
2022-08-22T18:19:40.177Z,2.47
2022-08-22T18:22:16.550Z,2.35
2022-08-22T18:24:56.363Z,2.13
2022-08-22T18:27:34.528Z,2.33
2022-08-22T18:30:19.862Z,2.55
2022-08-22T18:33:00.352Z,2.50
2022-08-22T18:35:44.769Z,2.03
2022-08-22T18:38:30.575Z,2.85
2022-08-22T18:41:13.859Z,2.45
2022-08-22T18:43:49.019Z,2.72
2022-08-22T18:46:42.871Z,2.67
2022-08-22T18:49:32.124Z,2.58
2022-08-22T18:52:35.210Z,2.70
2022-08-22T18:55:39.585Z,2.83
2022-08-22T18:58:38.225Z,2.50
2022-08-22T19:01:32.422Z,3.05
2022-08-22T19:04:59.007Z,2.80
2022-08-22T19:07:55.619Z,2.90
2022-08-22T19:10:39.769Z,2.70
2022-08-22T19:13:46.916Z,3.08
2022-08-22T19:16:49.315Z,2.70
2022-08-22T19:19:53.058Z,2.60
2022-08-22T19:22:30.256Z,2.70
2022-08-22T19:25:14.776Z,2.80
2022-08-22T19:27:50.205Z,2.72
2022-08-22T19:30:45.930Z,3.08
2022-08-22T19:33:27.656Z,2.70
2022-08-22T19:36:14.204Z,3.10
2022-08-22T19:39:05.308Z,2.85
2022-08-22T19:41:48.823Z,3.03
2022-08-22T19:44:43.965Z,3.25
2022-08-22T19:47:30.522Z,2.60
2022-08-22T19:50:13.625Z,2.60
2022-08-22T19:53:12.911Z,2.72
2022-08-22T19:56:03.883Z,2.60
2022-08-22T19:58:56.545Z,2.63
2022-08-22T20:01:47.466Z,2.30
2022-08-22T20:04:53.246Z,2.05
2022-08-22T20:07:33.785Z,2.13
2022-08-22T20:10:19.766Z,2.08
2022-08-22T20:13:07.616Z,1.90
2022-08-22T20:16:10.685Z,1.90
2022-08-22T20:19:05.956Z,2.05
2022-08-22T20:22:01.010Z,2.10
2022-08-22T20:24:40.183Z,2.13
2022-08-22T20:27:21.006Z,1.92
2022-08-22T20:29:58.945Z,1.90
2022-08-22T20:32:47.264Z,1.98
2022-08-22T20:35:22.604Z,1.88
2022-08-22T20:38:07.071Z,2.28
2022-08-22T20:40:55.039Z,1.95
2022-08-22T20:43:35.667Z,2.20
2022-08-22T20:46:24.269Z,2.28
2022-08-22T20:49:02.961Z,2.38
2022-08-22T20:51:37.219Z,1.90
2022-08-22T20:54:20.558Z,2.42
2022-08-22T20:56:55.636Z,2.72
2022-08-22T20:59:32.865Z,2.53
2022-08-22T21:02:11.626Z,2.47
2022-08-22T21:04:54.671Z,2.78
2022-08-22T21:07:29.965Z,2.78
2022-08-22T21:10:22.863Z,2.92
2022-08-22T21:13:14.934Z,2.90
2022-08-22T21:15:49.193Z,2.72
2022-08-22T21:18:30.467Z,3.15
2022-08-22T21:21:17.317Z,2.83
2022-08-22T21:23:51.485Z,2.80
2022-08-22T21:26:27.488Z,3.42
2022-08-22T21:29:02.262Z,3.08
2022-08-22T21:31:38.572Z,3.17
2022-08-22T21:34:17.018Z,2.85
2022-08-22T21:36:53.864Z,3.33
2022-08-22T21:39:30.260Z,3.38
2022-08-22T21:42:14.772Z,3.67
2022-08-22T21:44:57.373Z,3.63
2022-08-22T21:47:34.408Z,3.88
2022-08-22T21:50:18.886Z,3.33
2022-08-22T21:53:10.121Z,3.65
2022-08-22T21:55:47.246Z,3.90
2022-08-22T21:58:35.691Z,3.45
2022-08-22T22:01:30.647Z,3.97
2022-08-22T22:04:03.433Z,3.60
2022-08-22T22:06:35.369Z,3.95
2022-08-22T22:09:13.228Z,4.10
2022-08-22T22:11:46.711Z,3.55
2022-08-22T22:14:18.684Z,4.10
2022-08-22T22:16:50.466Z,3.80
2022-08-22T22:19:23.249Z,3.75
2022-08-22T22:21:56.861Z,4.20
2022-08-22T22:24:31.211Z,3.80
2022-08-22T22:27:03.034Z,4.00
2022-08-22T22:29:36.147Z,3.50
2022-08-22T22:32:08.133Z,3.88
2022-08-22T22:34:40.250Z,3.33
2022-08-22T22:37:15.116Z,4.53
2022-08-22T22:39:50.007Z,3.58
2022-08-22T22:42:21.976Z,4.18
2022-08-22T22:44:54.307Z,3.50
2022-08-22T22:47:29.989Z,3.17
2022-08-22T22:50:05.365Z,3.50
2022-08-22T22:52:59.883Z,2.85
2022-08-22T22:55:34.679Z,2.90
2022-08-22T22:58:07.227Z,2.70
2022-08-22T23:00:42.525Z,3.30
2022-08-22T23:03:14.386Z,3.45
2022-08-22T23:05:46.726Z,3.35
2022-08-22T23:08:18.536Z,3.63
2022-08-22T23:10:53.455Z,3.83
2022-08-22T23:13:25.205Z,3.47
2022-08-22T23:15:57.486Z,3.58
2022-08-22T23:18:39.290Z,3.70
2022-08-22T23:21:15.796Z,3.50
2022-08-22T23:23:48.025Z,3.72
2022-08-22T23:26:23.017Z,3.65
2022-08-22T23:28:55.078Z,3.47
2022-08-22T23:31:32.795Z,3.50
2022-08-22T23:34:07.127Z,3.95
2022-08-22T23:36:40.235Z,3.90
2022-08-22T23:39:13.231Z,4.07
2022-08-22T23:41:49.495Z,3.75
2022-08-22T23:44:23.631Z,3.97
2022-08-22T23:46:59.141Z,4.07
2022-08-22T23:49:31.497Z,4.00
2022-08-22T23:52:03.804Z,3.72
2022-08-22T23:54:36.525Z,4.03
2022-08-22T23:57:12.701Z,4.18
2022-08-22T23:59:46.418Z,4.40
